createdAt,value
2022-12-01T00:01:59.955Z,94066.06
2022-12-01T00:04:26.609Z,94055.59
2022-12-01T00:06:53.079Z,94031.47
2022-12-01T00:09:39.108Z,94026.69
2022-12-01T00:12:05.668Z,94050.13
2022-12-01T00:14:32.092Z,94024.13
2022-12-01T00:16:58.561Z,94036.28
2022-12-01T00:19:28.243Z,94048.97
2022-12-01T00:21:54.672Z,94051.47
2022-12-01T00:24:23.433Z,94026.81
2022-12-01T00:26:50.360Z,93984.88
2022-12-01T00:29:16.794Z,94016.81
2022-12-01T00:31:43.301Z,93983.50
2022-12-01T00:34:22.370Z,94042.19
2022-12-01T00:36:48.904Z,94021.28
2022-12-01T00:39:26.536Z,94005.81
2022-12-01T00:41:52.948Z,94036.28
2022-12-01T00:44:19.413Z,94015.19
2022-12-01T00:46:45.919Z,94021.78
2022-12-01T00:49:13.915Z,94029.03
2022-12-01T00:51:40.531Z,94015.00
2022-12-01T00:54:07.119Z,94005.91
2022-12-01T00:56:33.547Z,94017.75
2022-12-01T00:58:59.980Z,94004.03
2022-12-01T01:01:33.316Z,94015.66
2022-12-01T01:03:59.795Z,93993.22
2022-12-01T01:06:26.216Z,94041.34
2022-12-01T01:08:52.625Z,94008.91
2022-12-01T01:11:19.133Z,94045.66
2022-12-01T01:13:49.801Z,94026.44
2022-12-01T01:16:21.848Z,94025.88
2022-12-01T01:18:48.879Z,94048.03
2022-12-01T01:21:18.330Z,94046.69
2022-12-01T01:23:44.878Z,94022.06
2022-12-01T01:26:17.031Z,94038.81
2022-12-01T01:28:43.520Z,94021.78
2022-12-01T01:31:12.358Z,94049.13
2022-12-01T01:33:51.584Z,94044.19
2022-12-01T01:36:19.419Z,94044.47
2022-12-01T01:39:27.796Z,94047.50
2022-12-01T01:41:54.218Z,94027.22
2022-12-01T01:44:50.553Z,94041.56
2022-12-01T01:47:51.479Z,94040.69
2022-12-01T01:50:22.506Z,94035.91
2022-12-01T01:52:55.741Z,94046.69
2022-12-01T01:55:22.446Z,93975.16
2022-12-01T01:57:49.120Z,94023.56
2022-12-01T02:00:18.920Z,94023.00
2022-12-01T02:02:47.542Z,94045.19
2022-12-01T02:05:33.422Z,94011.34
2022-12-01T02:08:01.638Z,94045.47
2022-12-01T02:10:59.076Z,94043.25
2022-12-01T02:13:39.463Z,94025.13
2022-12-01T02:16:49.981Z,94035.91
2022-12-01T02:19:33.457Z,94020.63
2022-12-01T02:22:13.064Z,94038.19
2022-12-01T02:24:56.501Z,94039.44
2022-12-01T02:28:12.280Z,94044.91
2022-12-01T02:30:47.755Z,94006.97
2022-12-01T02:33:40.025Z,94031.22
2022-12-01T02:36:42.131Z,94019.63
2022-12-01T02:39:42.360Z,94036.47
2022-12-01T02:42:38.181Z,94013.47
2022-12-01T02:45:10.384Z,94029.72
2022-12-01T02:47:40.265Z,94009.94
2022-12-01T02:50:09.806Z,94032.94
2022-12-01T02:52:38.454Z,93999.81
2022-12-01T02:55:05.245Z,93997.53
2022-12-01T02:57:31.795Z,94040.13
2022-12-01T02:59:59.931Z,94034.28
2022-12-01T03:02:42.540Z,94048.88
2022-12-01T03:05:28.606Z,94042.13
2022-12-01T03:08:06.510Z,94043.06
2022-12-01T03:10:59.739Z,94021.56
2022-12-01T03:14:09.865Z,94032.75
2022-12-01T03:16:57.039Z,94029.78
2022-12-01T03:19:38.383Z,94023.00
2022-12-01T03:22:15.219Z,94009.75
2022-12-01T03:24:55.156Z,94032.56
2022-12-01T03:27:26.973Z,94026.25
2022-12-01T03:29:57.105Z,94005.91
2022-12-01T03:32:32.501Z,94017.66
2022-12-01T03:35:04.818Z,93998.88
2022-12-01T03:37:46.867Z,94038.09
2022-12-01T03:40:27.149Z,94026.28
2022-12-01T03:42:59.133Z,94014.91
2022-12-01T03:45:32.251Z,93980.78
2022-12-01T03:47:58.901Z,94000.56
2022-12-01T03:50:35.425Z,94012.25
2022-12-01T03:53:10.744Z,94027.41
2022-12-01T03:55:41.828Z,94002.72
2022-12-01T03:58:15.987Z,94029.09
2022-12-01T04:00:43.704Z,94038.19
2022-12-01T04:03:18.249Z,94026.25
2022-12-01T04:05:44.825Z,94021.38
2022-12-01T04:08:11.316Z,94006.50
2022-12-01T04:10:41.827Z,93993.34
2022-12-01T04:13:15.969Z,94034.06
2022-12-01T04:15:43.303Z,94011.84
2022-12-01T04:18:09.765Z,94023.00
2022-12-01T04:20:36.178Z,94018.66
2022-12-01T04:23:02.613Z,94028.72
2022-12-01T04:25:29.068Z,94022.16
2022-12-01T04:27:55.448Z,94015.69
2022-12-01T04:30:21.869Z,94016.50
2022-12-01T04:32:48.288Z,94005.94
2022-12-01T04:35:14.759Z,94026.53
2022-12-01T04:37:41.195Z,94003.28
2022-12-01T04:40:08.968Z,94033.88
2022-12-01T04:42:35.436Z,94012.69
2022-12-01T04:45:01.955Z,94009.25
2022-12-01T04:47:28.482Z,94021.16
2022-12-01T04:49:54.963Z,94030.63
2022-12-01T04:52:21.403Z,94010.25
2022-12-01T04:54:47.805Z,94008.09
2022-12-01T04:57:14.303Z,94008.66
2022-12-01T04:59:40.720Z,94025.00
2022-12-01T05:02:07.603Z,94001.97
2022-12-01T05:04:38.667Z,94037.97
2022-12-01T05:07:05.379Z,94032.63
2022-12-01T05:09:34.950Z,94020.44
2022-12-01T05:12:01.415Z,94031.03
2022-12-01T05:14:28.998Z,93974.44
2022-12-01T05:17:03.625Z,94045.22
2022-12-01T05:19:59.010Z,94021.94
2022-12-01T05:23:04.242Z,94043.75
2022-12-01T05:25:37.495Z,94002.59
2022-12-01T05:28:09.945Z,94024.81
2022-12-01T05:30:55.751Z,94050.91
2022-12-01T05:33:24.541Z,94045.88
2022-12-01T05:35:57.171Z,94051.06
2022-12-01T05:38:24.828Z,94047.66
2022-12-01T05:41:00.624Z,94031.53
2022-12-01T05:43:44.618Z,94050.19
2022-12-01T05:46:14.363Z,94051.31
2022-12-01T05:48:42.364Z,94053.78
2022-12-01T05:51:10.806Z,94050.75
2022-12-01T05:53:49.102Z,94047.72
2022-12-01T05:56:17.656Z,94027.19
2022-12-01T05:58:44.231Z,94053.28
2022-12-01T06:01:10.802Z,94042.34
2022-12-01T06:03:38.342Z,94046.09
2022-12-01T06:06:04.903Z,94040.78
2022-12-01T06:08:31.312Z,94035.06
2022-12-01T06:10:57.959Z,94060.81
2022-12-01T06:13:24.406Z,94034.22
2022-12-01T06:15:58.893Z,94045.28
2022-12-01T06:18:35.298Z,94061.69
2022-12-01T06:21:02.356Z,94066.44
2022-12-01T06:23:30.566Z,94040.16
2022-12-01T06:25:57.558Z,94055.91
2022-12-01T06:28:32.140Z,94044.91
2022-12-01T06:31:03.206Z,94051.03
2022-12-01T06:33:31.543Z,94069.13
2022-12-01T06:36:06.165Z,94075.03
2022-12-01T06:38:35.304Z,94071.03
2022-12-01T06:41:02.541Z,94054.28
2022-12-01T06:43:29.685Z,94078.75
2022-12-01T06:46:01.177Z,94052.34
2022-12-01T06:48:29.477Z,94087.31
2022-12-01T06:51:00.246Z,94083.81
2022-12-01T06:53:28.406Z,94082.41
2022-12-01T06:55:59.374Z,94065.78
2022-12-01T06:58:34.633Z,94082.38
2022-12-01T07:01:08.457Z,94094.00
2022-12-01T07:03:35.268Z,94076.97
2022-12-01T07:06:17.973Z,94074.00
2022-12-01T07:08:44.739Z,94087.81
2022-12-01T07:11:13.966Z,94097.84
2022-12-01T07:13:41.808Z,94096.53
2022-12-01T07:16:09.102Z,94093.13
2022-12-01T07:18:37.092Z,94100.53
2022-12-01T07:21:07.069Z,94103.84
2022-12-01T07:23:33.913Z,94082.72
2022-12-01T07:26:02.542Z,94102.72
2022-12-01T07:28:29.480Z,94084.63
2022-12-01T07:31:12.888Z,94091.38
2022-12-01T07:33:39.738Z,94116.16
2022-12-01T07:36:07.029Z,94082.72
2022-12-01T07:38:34.094Z,94082.16
2022-12-01T07:41:09.605Z,94081.50
2022-12-01T07:43:36.770Z,94111.69
2022-12-01T07:46:15.739Z,94096.00
2022-12-01T07:48:45.788Z,94115.50
2022-12-01T07:51:17.665Z,94090.84
2022-12-01T07:53:49.290Z,94100.44
2022-12-01T07:56:17.417Z,94081.63
2022-12-01T07:58:44.336Z,94114.94
2022-12-01T08:01:13.888Z,94120.09
2022-12-01T08:03:51.644Z,94115.22
2022-12-01T08:06:18.932Z,94121.72
2022-12-01T08:08:45.460Z,94105.94
2022-12-01T08:11:17.602Z,94100.16
2022-12-01T08:13:44.793Z,94111.97
2022-12-01T08:16:14.040Z,94097.84
2022-12-01T08:18:42.341Z,94108.13
2022-12-01T08:21:14.810Z,94100.06
2022-12-01T08:23:42.207Z,94123.19
2022-12-01T08:26:12.781Z,94120.03
2022-12-01T08:28:42.493Z,94096.72
2022-12-01T08:31:39.313Z,94121.13
2022-12-01T08:34:06.725Z,94082.28
2022-12-01T08:36:34.275Z,94118.38
2022-12-01T08:39:00.837Z,94101.47
2022-12-01T08:41:44.660Z,94115.66
2022-12-01T08:44:11.325Z,94089.09
2022-12-01T08:46:38.129Z,94120.75
2022-12-01T08:49:06.306Z,94125.41
2022-12-01T08:51:33.074Z,94093.88
2022-12-01T08:54:00.108Z,94113.72
2022-12-01T08:56:35.725Z,94119.09
2022-12-01T08:59:02.763Z,94095.69
2022-12-01T09:01:29.546Z,94112.41
2022-12-01T09:04:08.229Z,94104.53
2022-12-01T09:06:42.312Z,94114.84
2022-12-01T09:09:11.353Z,94129.72
2022-12-01T09:11:37.910Z,94119.59
2022-12-01T09:14:05.413Z,94121.19
2022-12-01T09:16:33.475Z,94122.34
2022-12-01T09:19:00.079Z,94098.44
2022-12-01T09:21:32.797Z,94120.19
2022-12-01T09:24:00.860Z,94104.31
2022-12-01T09:26:28.212Z,94109.38
2022-12-01T09:28:57.398Z,94108.75
2022-12-01T09:31:24.507Z,94118.22
2022-12-01T09:34:08.726Z,94133.72
2022-12-01T09:36:37.581Z,94126.06
2022-12-01T09:39:06.231Z,94121.97
2022-12-01T09:41:39.461Z,94120.78
2022-12-01T09:44:17.052Z,94128.44
2022-12-01T09:47:03.108Z,94120.34
2022-12-01T09:49:42.090Z,94094.31
2022-12-01T09:52:12.704Z,94130.75
2022-12-01T09:54:39.629Z,94096.59
2022-12-01T09:57:06.145Z,94089.38
2022-12-01T09:59:39.592Z,94110.91
2022-12-01T10:02:23.076Z,94096.34
2022-12-01T10:04:52.502Z,94084.78
2022-12-01T10:07:30.800Z,94076.66
2022-12-01T10:10:18.002Z,94099.84
2022-12-01T10:12:52.322Z,94071.91
2022-12-01T10:15:45.095Z,94101.97
2022-12-01T10:18:33.989Z,94094.13
2022-12-01T10:21:03.880Z,94102.44
2022-12-01T10:23:55.317Z,94101.63
2022-12-01T10:26:31.930Z,94091.69
2022-12-01T10:29:24.438Z,94080.31
2022-12-01T10:31:58.220Z,94081.66
2022-12-01T10:34:32.819Z,94081.66
2022-12-01T10:36:59.376Z,94074.53
2022-12-01T10:40:00.045Z,94091.22
2022-12-01T10:42:43.363Z,94086.50
2022-12-01T10:45:33.977Z,94077.91
2022-12-01T10:48:08.308Z,94069.63
2022-12-01T10:50:35.924Z,94051.31
2022-12-01T10:53:03.544Z,94064.38
2022-12-01T10:55:40.836Z,94080.56
2022-12-01T10:58:15.494Z,94046.25
2022-12-01T11:01:02.397Z,94061.16
2022-12-01T11:03:36.802Z,94044.72
2022-12-01T11:06:05.807Z,94067.03
2022-12-01T11:08:44.424Z,94065.28
2022-12-01T11:11:40.584Z,94064.31
2022-12-01T11:14:18.716Z,94037.19
2022-12-01T11:16:48.507Z,94067.44
2022-12-01T11:19:33.785Z,94069.63
2022-12-01T11:22:03.215Z,94069.00
2022-12-01T11:24:42.257Z,94067.25
2022-12-01T11:27:18.860Z,94056.34
2022-12-01T11:29:49.787Z,94029.94
2022-12-01T11:32:23.850Z,94038.47
2022-12-01T11:34:57.398Z,94058.84
2022-12-01T11:37:28.756Z,94056.34
2022-12-01T11:40:22.581Z,94057.00
2022-12-01T11:42:51.657Z,94048.38
2022-12-01T11:45:21.099Z,94058.28
2022-12-01T11:48:29.301Z,94058.56
2022-12-01T11:51:16.169Z,94057.69
2022-12-01T11:53:43.732Z,94054.59
2022-12-01T11:56:19.500Z,94051.41
2022-12-01T11:59:25.750Z,94058.13
2022-12-01T12:02:04.474Z,94056.78
2022-12-01T12:04:54.103Z,94066.16
2022-12-01T12:07:45.108Z,94050.88
2022-12-01T12:10:26.986Z,94063.50
2022-12-01T12:13:25.227Z,94052.22
2022-12-01T12:16:05.741Z,94042.03
2022-12-01T12:19:16.917Z,94048.66
2022-12-01T12:22:15.574Z,94054.28
2022-12-01T12:25:03.244Z,94053.25
2022-12-01T12:27:45.850Z,94053.94
2022-12-01T12:30:42.689Z,94052.03
2022-12-01T12:33:52.250Z,94046.19
2022-12-01T12:36:39.705Z,94050.41
2022-12-01T12:39:36.897Z,94042.03
2022-12-01T12:42:18.097Z,94049.06
2022-12-01T12:44:52.336Z,94026.94
2022-12-01T12:47:30.879Z,94045.03
2022-12-01T12:50:17.297Z,94035.50
2022-12-01T12:52:51.486Z,94044.59
2022-12-01T12:55:21.195Z,94039.22
2022-12-01T12:57:58.033Z,94044.06
2022-12-01T13:00:42.297Z,94034.38
2022-12-01T13:03:19.140Z,94042.09
2022-12-01T13:05:57.573Z,94042.75
2022-12-01T13:08:45.433Z,94043.50
2022-12-01T13:11:33.293Z,94040.84
2022-12-01T13:14:13.194Z,94042.56
2022-12-01T13:16:48.730Z,94042.34
2022-12-01T13:19:28.647Z,94050.22
2022-12-01T13:21:57.365Z,94022.00
2022-12-01T13:24:29.342Z,94039.53
2022-12-01T13:27:05.554Z,94023.31
2022-12-01T13:29:37.509Z,94039.75
2022-12-01T13:32:28.269Z,94045.00
2022-12-01T13:34:56.521Z,94046.31
2022-12-01T13:37:31.055Z,94041.75
2022-12-01T13:40:23.457Z,94048.53
2022-12-01T13:43:14.879Z,94038.19
2022-12-01T13:46:20.558Z,94037.63
2022-12-01T13:48:56.809Z,94019.03
2022-12-01T13:51:47.807Z,94020.72
2022-12-01T13:54:52.904Z,94041.00
2022-12-01T13:57:27.494Z,94040.13
2022-12-01T14:00:28.011Z,94036.22
2022-12-01T14:03:35.574Z,93963.00
2022-12-01T14:06:24.887Z,94034.38
2022-12-01T14:09:00.384Z,94020.06
2022-12-01T14:11:33.857Z,94037.31
2022-12-01T14:14:12.993Z,94032.47
2022-12-01T14:16:51.578Z,94041.91
2022-12-01T14:19:46.186Z,94044.41
2022-12-01T14:22:38.385Z,94042.50
2022-12-01T14:25:26.994Z,94035.56
2022-12-01T14:28:03.114Z,94007.31
2022-12-01T14:30:49.828Z,94042.19
2022-12-01T14:33:37.085Z,94037.91
2022-12-01T14:36:07.879Z,94022.72
2022-12-01T14:38:42.677Z,94023.09
2022-12-01T14:41:21.106Z,94022.44
2022-12-01T14:44:05.640Z,94033.88
2022-12-01T14:47:00.743Z,94035.69
2022-12-01T14:49:35.107Z,94015.34
2022-12-01T14:52:09.444Z,94016.38
2022-12-01T14:54:45.266Z,94037.56
2022-12-01T14:57:20.540Z,94009.22
2022-12-01T15:00:07.586Z,94010.09
2022-12-01T15:02:53.718Z,94036.91
2022-12-01T15:05:22.366Z,94015.78
2022-12-01T15:07:58.840Z,94023.91
2022-12-01T15:10:36.998Z,94032.31
2022-12-01T15:13:33.811Z,94047.28
2022-12-01T15:16:05.739Z,94033.81
2022-12-01T15:18:36.848Z,94019.47
2022-12-01T15:21:26.456Z,94037.91
2022-12-01T15:24:24.329Z,94040.13
2022-12-01T15:26:55.185Z,94036.06
2022-12-01T15:29:44.696Z,94006.88
2022-12-01T15:32:24.970Z,94028.78
2022-12-01T15:34:56.261Z,94010.94
2022-12-01T15:37:42.540Z,94032.31
2022-12-01T15:43:05.994Z,94020.56
2022-12-01T15:45:48.371Z,94030.03
2022-12-01T15:48:34.730Z,94037.69
2022-12-01T15:51:05.625Z,94045.59
2022-12-01T15:53:36.935Z,94044.94
2022-12-01T15:56:09.249Z,94048.16
2022-12-01T15:59:27.694Z,94042.34
2022-12-01T16:01:56.907Z,94041.00
2022-12-01T16:04:35.377Z,94029.06
2022-12-01T16:07:12.184Z,94050.59
2022-12-01T16:10:04.911Z,94047.50
2022-12-01T16:12:37.180Z,94012.84
2022-12-01T16:15:22.777Z,94019.34
2022-12-01T16:17:52.751Z,94044.25
2022-12-01T16:20:32.187Z,94043.00
2022-12-01T16:23:22.420Z,94024.50
2022-12-01T16:26:08.915Z,94042.63
2022-12-01T16:28:43.696Z,94036.13
2022-12-01T16:31:19.540Z,94041.38
2022-12-01T16:33:48.172Z,94042.34
2022-12-01T16:36:14.912Z,94025.81
2022-12-01T16:38:43.431Z,94021.47
2022-12-01T16:41:36.359Z,94034.69
2022-12-01T16:44:29.066Z,94038.50
2022-12-01T16:46:59.736Z,94028.16
2022-12-01T16:49:30.380Z,94036.34
2022-12-01T16:51:57.539Z,94020.84
2022-12-01T16:54:36.979Z,94028.59
2022-12-01T16:57:03.690Z,94041.91
2022-12-01T16:59:32.565Z,94039.69
2022-12-01T17:02:03.163Z,94036.97
2022-12-01T17:04:29.755Z,93979.06
2022-12-01T17:07:01.470Z,94029.28
2022-12-01T17:09:30.954Z,94016.97
2022-12-01T17:12:09.955Z,94033.47
2022-12-01T17:14:42.520Z,94011.06
2022-12-01T17:17:10.065Z,94031.03
2022-12-01T17:19:39.593Z,94038.06
2022-12-01T17:22:08.472Z,94045.44
2022-12-01T17:24:36.017Z,94027.28
2022-12-01T17:27:04.494Z,94024.34
2022-12-01T17:29:31.026Z,94011.88
2022-12-01T17:31:59.460Z,94031.88
2022-12-01T17:34:25.901Z,94006.56
2022-12-01T17:37:04.585Z,94039.41
2022-12-01T17:39:32.097Z,94018.00
2022-12-01T17:41:58.479Z,94032.25
2022-12-01T17:44:28.629Z,94031.25
2022-12-01T17:47:02.972Z,94024.63
2022-12-01T17:49:32.836Z,94014.81
2022-12-01T17:52:10.542Z,94016.44
2022-12-01T17:54:40.989Z,94007.06
2022-12-01T17:57:08.516Z,94021.66
2022-12-01T17:59:43.941Z,94038.69
2022-12-01T18:02:23.815Z,94046.56
2022-12-01T18:04:50.633Z,94036.03
2022-12-01T18:07:20.521Z,94036.84
2022-12-01T18:09:47.053Z,94035.97
2022-12-01T18:12:16.671Z,94007.34
2022-12-01T18:14:47.399Z,94024.63
2022-12-01T18:17:14.049Z,94029.22
2022-12-01T18:19:41.512Z,94018.19
2022-12-01T18:22:08.011Z,94040.84
2022-12-01T18:24:36.576Z,94038.75
2022-12-01T18:27:07.194Z,94022.53
2022-12-01T18:29:35.712Z,94031.81
2022-12-01T18:32:03.379Z,94051.06
2022-12-01T18:34:33.964Z,94025.03
2022-12-01T18:37:05.779Z,94054.69
2022-12-01T18:39:48.001Z,94047.41
2022-12-01T18:42:16.454Z,94038.56
2022-12-01T18:44:43.029Z,94057.50
2022-12-01T18:47:14.617Z,94040.63
2022-12-01T18:49:52.308Z,94015.59
2022-12-01T18:52:23.889Z,94039.16
2022-12-01T18:54:51.640Z,94038.00
2022-12-01T18:57:18.996Z,94034.16
2022-12-01T18:59:51.493Z,94026.16
2022-12-01T19:02:21.037Z,94030.19
2022-12-01T19:04:53.705Z,94046.41
2022-12-01T19:07:29.952Z,94062.44
2022-12-01T19:09:56.699Z,94061.59
2022-12-01T19:12:23.201Z,94053.72
2022-12-01T19:14:50.332Z,94030.09
2022-12-01T19:17:37.691Z,94062.94
2022-12-01T19:20:08.969Z,94039.28
2022-12-01T19:22:35.385Z,94028.72
2022-12-01T19:25:04.130Z,94046.72
2022-12-01T19:27:34.701Z,94046.56
2022-12-01T19:30:01.149Z,94060.84
2022-12-01T19:32:32.041Z,94014.72
2022-12-01T19:34:58.650Z,94009.75
2022-12-01T19:37:34.149Z,94013.06
2022-12-01T19:40:00.590Z,94039.53
2022-12-01T19:42:30.988Z,94031.69
2022-12-01T19:44:59.456Z,94036.09
2022-12-01T19:47:34.654Z,94037.72
2022-12-01T19:50:10.035Z,94051.28
2022-12-01T19:52:46.694Z,94057.88
2022-12-01T19:55:21.786Z,94057.97
2022-12-01T19:57:53.337Z,94045.53
2022-12-01T20:00:33.121Z,93992.84
2022-12-01T20:03:18.074Z,94053.63
2022-12-01T20:05:45.591Z,94057.88
2022-12-01T20:08:19.228Z,94045.41
2022-12-01T20:10:49.488Z,94061.91
2022-12-01T20:13:15.902Z,94018.03
2022-12-01T20:16:15.201Z,94043.97
2022-12-01T20:18:47.698Z,94058.06
2022-12-01T20:21:27.140Z,94059.38
2022-12-01T20:23:58.073Z,94061.03
2022-12-01T20:26:32.612Z,94056.44
2022-12-01T20:29:07.155Z,94056.72
2022-12-01T20:31:41.825Z,94055.91
2022-12-01T20:34:12.893Z,94042.94
2022-12-01T20:36:47.200Z,94050.69
2022-12-01T20:39:20.844Z,94048.06
2022-12-01T20:41:53.521Z,94016.03
2022-12-01T20:44:36.722Z,94044.97
2022-12-01T20:47:16.561Z,94030.41
2022-12-01T20:49:47.295Z,94046.91
2022-12-01T20:52:14.919Z,94049.91
2022-12-01T20:54:42.455Z,94049.25
2022-12-01T20:57:22.050Z,94018.19
2022-12-01T20:59:51.631Z,94013.31
2022-12-01T21:02:26.526Z,94029.00
2022-12-01T21:04:59.003Z,94040.19
2022-12-01T21:07:27.935Z,94017.84
2022-12-01T21:10:00.745Z,94020.63
2022-12-01T21:12:48.374Z,94035.28
2022-12-01T21:15:29.282Z,94026.34
2022-12-01T21:18:13.435Z,94049.06
2022-12-01T21:20:44.042Z,94047.47
2022-12-01T21:23:14.793Z,94045.84
2022-12-01T21:25:42.169Z,94015.66
2022-12-01T21:28:46.289Z,94043.91
2022-12-01T21:31:14.434Z,94048.13
2022-12-01T21:33:42.226Z,94018.69
2022-12-01T21:36:22.874Z,94013.16
2022-12-01T21:39:13.491Z,94027.06
2022-12-01T21:41:40.176Z,94011.94
2022-12-01T21:44:37.644Z,94033.03
2022-12-01T21:47:17.865Z,94044.19
2022-12-01T21:49:45.347Z,93997.47
2022-12-01T21:52:21.565Z,94013.72
2022-12-01T21:54:48.296Z,94035.88
2022-12-01T21:57:42.815Z,94042.59
2022-12-01T22:00:30.783Z,94033.31
2022-12-01T22:03:16.163Z,94017.59
2022-12-01T22:06:07.162Z,94009.06
2022-12-01T22:08:37.093Z,94028.16
2022-12-01T22:11:24.074Z,94027.88
2022-12-01T22:14:21.418Z,94028.16
2022-12-01T22:16:57.224Z,93993.72
2022-12-01T22:19:26.379Z,94018.88
2022-12-01T22:22:03.463Z,94021.97
2022-12-01T22:24:53.820Z,94016.81
2022-12-01T22:27:29.633Z,94024.16
2022-12-01T22:29:59.034Z,93991.41
2022-12-01T22:32:33.352Z,94019.75
2022-12-01T22:35:14.445Z,94001.31
2022-12-01T22:37:46.248Z,93984.00
2022-12-01T22:40:52.470Z,94019.19
2022-12-01T22:43:28.928Z,94010.53
2022-12-01T22:46:10.043Z,93981.75
2022-12-01T22:48:43.336Z,94006.78
2022-12-01T22:51:12.801Z,94008.09
2022-12-01T22:53:41.901Z,93988.56
2022-12-01T22:56:46.493Z,94000.63
2022-12-01T22:59:21.310Z,93988.06
2022-12-01T23:01:49.275Z,93995.13
2022-12-01T23:04:26.668Z,94001.03
2022-12-01T23:07:07.631Z,93996.91
2022-12-01T23:09:43.106Z,93992.91
2022-12-01T23:12:12.639Z,93998.25
2022-12-01T23:14:44.776Z,94001.34
2022-12-01T23:17:18.404Z,93969.09
2022-12-01T23:19:49.050Z,93998.06
2022-12-01T23:22:16.099Z,93991.31
2022-12-01T23:24:49.988Z,93986.13
2022-12-01T23:27:18.015Z,93992.63
2022-12-01T23:29:44.538Z,93966.66
2022-12-01T23:32:12.463Z,93987.03
2022-12-01T23:34:39.422Z,93989.66
2022-12-01T23:37:39.015Z,93970.09
2022-12-01T23:40:18.989Z,93978.63
2022-12-01T23:42:48.922Z,93978.50
2022-12-01T23:45:25.922Z,93970.03
2022-12-01T23:47:55.298Z,93963.59
2022-12-01T23:50:26.606Z,93966.53
2022-12-01T23:52:53.863Z,93951.19
2022-12-01T23:55:28.445Z,93942.00
2022-12-01T23:57:58.937Z,93945.47
